sensor_id;sensor_type;location;lat;lon;timestamp;P1;durP1;ratioP1;P2;durP2;ratioP2
33760;SDS011;20084;47.912;19.044;2022-11-14T00:00:10;43.33;;;25.50;;
33760;SDS011;20084;47.912;19.044;2022-11-14T00:02:37;36.40;;;17.75;;
33760;SDS011;20084;47.912;19.044;2022-11-14T00:05:03;60.08;;;12.73;;
33760;SDS011;20084;47.912;19.044;2022-11-14T00:07:31;38.97;;;10.15;;
33760;SDS011;20084;47.912;19.044;2022-11-14T00:09:57;35.95;;;11.32;;
33760;SDS011;20084;47.912;19.044;2022-11-14T00:12:23;24.30;;;10.60;;
33760;SDS011;20084;47.912;19.044;2022-11-14T00:14:49;39.80;;;12.00;;
33760;SDS011;20084;47.912;19.044;2022-11-14T00:17:15;47.15;;;11.43;;
33760;SDS011;20084;47.912;19.044;2022-11-14T00:19:41;36.63;;;11.60;;
33760;SDS011;20084;47.912;19.044;2022-11-14T00:22:06;43.83;;;10.65;;
33760;SDS011;20084;47.912;19.044;2022-11-14T00:24:32;76.03;;;10.30;;
33760;SDS011;20084;47.912;19.044;2022-11-14T00:26:57;60.38;;;10.20;;
33760;SDS011;20084;47.912;19.044;2022-11-14T00:29:23;32.65;;;9.02;;
33760;SDS011;20084;47.912;19.044;2022-11-14T00:31:48;70.03;;;10.43;;
33760;SDS011;20084;47.912;19.044;2022-11-14T00:34:14;51.58;;;9.40;;
33760;SDS011;20084;47.912;19.044;2022-11-14T00:36:40;28.35;;;9.63;;
33760;SDS011;20084;47.912;19.044;2022-11-14T00:39:05;57.78;;;10.18;;
33760;SDS011;20084;47.912;19.044;2022-11-14T00:41:31;32.95;;;9.75;;
33760;SDS011;20084;47.912;19.044;2022-11-14T00:43:56;33.00;;;9.07;;
33760;SDS011;20084;47.912;19.044;2022-11-14T00:46:22;36.95;;;9.95;;
33760;SDS011;20084;47.912;19.044;2022-11-14T00:48:47;35.22;;;9.02;;
33760;SDS011;20084;47.912;19.044;2022-11-14T00:51:13;52.70;;;9.00;;
33760;SDS011;20084;47.912;19.044;2022-11-14T00:53:38;52.13;;;8.57;;
33760;SDS011;20084;47.912;19.044;2022-11-14T00:56:04;31.73;;;7.78;;
33760;SDS011;20084;47.912;19.044;2022-11-14T00:58:30;49.03;;;10.00;;
33760;SDS011;20084;47.912;19.044;2022-11-14T01:00:56;31.40;;;8.70;;
33760;SDS011;20084;47.912;19.044;2022-11-14T01:03:22;14.82;;;8.57;;
33760;SDS011;20084;47.912;19.044;2022-11-14T01:05:48;20.52;;;8.55;;
33760;SDS011;20084;47.912;19.044;2022-11-14T01:08:16;18.08;;;9.57;;
33760;SDS011;20084;47.912;19.044;2022-11-14T01:10:44;24.65;;;8.85;;
33760;SDS011;20084;47.912;19.044;2022-11-14T01:13:11;51.97;;;8.85;;
33760;SDS011;20084;47.912;19.044;2022-11-14T01:15:39;28.80;;;8.55;;
33760;SDS011;20084;47.912;19.044;2022-11-14T01:18:05;25.92;;;8.95;;
33760;SDS011;20084;47.912;19.044;2022-11-14T01:20:31;39.83;;;9.30;;
33760;SDS011;20084;47.912;19.044;2022-11-14T01:22:57;29.38;;;10.10;;
33760;SDS011;20084;47.912;19.044;2022-11-14T01:25:24;45.33;;;9.70;;
33760;SDS011;20084;47.912;19.044;2022-11-14T01:27:49;31.35;;;9.05;;
33760;SDS011;20084;47.912;19.044;2022-11-14T01:30:15;42.83;;;10.23;;
33760;SDS011;20084;47.912;19.044;2022-11-14T01:32:40;34.60;;;9.52;;
33760;SDS011;20084;47.912;19.044;2022-11-14T01:35:06;19.75;;;10.25;;
33760;SDS011;20084;47.912;19.044;2022-11-14T01:37:32;34.55;;;9.15;;
33760;SDS011;20084;47.912;19.044;2022-11-14T01:39:57;23.33;;;9.55;;
33760;SDS011;20084;47.912;19.044;2022-11-14T01:42:23;17.60;;;10.60;;
33760;SDS011;20084;47.912;19.044;2022-11-14T01:44:49;17.00;;;10.38;;
33760;SDS011;20084;47.912;19.044;2022-11-14T01:47:23;20.50;;;10.65;;
33760;SDS011;20084;47.912;19.044;2022-11-14T01:49:53;55.33;;;9.77;;
33760;SDS011;20084;47.912;19.044;2022-11-14T01:52:23;32.60;;;8.68;;
33760;SDS011;20084;47.912;19.044;2022-11-14T01:54:54;22.20;;;8.90;;
33760;SDS011;20084;47.912;19.044;2022-11-14T01:57:24;26.17;;;8.23;;
33760;SDS011;20084;47.912;19.044;2022-11-14T01:59:53;16.85;;;8.18;;
33760;SDS011;20084;47.912;19.044;2022-11-14T02:02:22;14.65;;;8.57;;
33760;SDS011;20084;47.912;19.044;2022-11-14T02:04:50;22.77;;;8.65;;
33760;SDS011;20084;47.912;19.044;2022-11-14T02:07:23;34.72;;;9.63;;
33760;SDS011;20084;47.912;19.044;2022-11-14T02:09:51;30.38;;;16.15;;
33760;SDS011;20084;47.912;19.044;2022-11-14T02:12:18;18.05;;;8.35;;
33760;SDS011;20084;47.912;19.044;2022-11-14T02:14:44;12.48;;;8.43;;
33760;SDS011;20084;47.912;19.044;2022-11-14T02:17:12;16.30;;;9.27;;
33760;SDS011;20084;47.912;19.044;2022-11-14T02:19:44;20.00;;;9.05;;
33760;SDS011;20084;47.912;19.044;2022-11-14T02:22:17;11.05;;;8.23;;
33760;SDS011;20084;47.912;19.044;2022-11-14T02:24:43;25.98;;;8.52;;
33760;SDS011;20084;47.912;19.044;2022-11-14T02:27:09;15.55;;;9.05;;
33760;SDS011;20084;47.912;19.044;2022-11-14T02:29:36;14.85;;;8.98;;
33760;SDS011;20084;47.912;19.044;2022-11-14T02:32:02;19.17;;;9.43;;
33760;SDS011;20084;47.912;19.044;2022-11-14T02:34:28;18.75;;;9.57;;
33760;SDS011;20084;47.912;19.044;2022-11-14T02:36:54;33.95;;;9.75;;
33760;SDS011;20084;47.912;19.044;2022-11-14T02:39:20;17.55;;;8.68;;
33760;SDS011;20084;47.912;19.044;2022-11-14T02:41:45;26.73;;;8.63;;
33760;SDS011;20084;47.912;19.044;2022-11-14T02:44:11;29.23;;;11.18;;
33760;SDS011;20084;47.912;19.044;2022-11-14T02:46:36;36.20;;;11.25;;
33760;SDS011;20084;47.912;19.044;2022-11-14T02:49:02;36.10;;;10.40;;
33760;SDS011;20084;47.912;19.044;2022-11-14T02:51:28;12.55;;;10.13;;
33760;SDS011;20084;47.912;19.044;2022-11-14T02:53:53;21.35;;;9.75;;
33760;SDS011;20084;47.912;19.044;2022-11-14T02:56:19;33.78;;;10.68;;
33760;SDS011;20084;47.912;19.044;2022-11-14T02:58:44;32.75;;;10.05;;
33760;SDS011;20084;47.912;19.044;2022-11-14T03:01:10;35.97;;;10.38;;
33760;SDS011;20084;47.912;19.044;2022-11-14T03:03:35;35.40;;;10.50;;
33760;SDS011;20084;47.912;19.044;2022-11-14T03:06:02;33.10;;;10.07;;
33760;SDS011;20084;47.912;19.044;2022-11-14T03:08:28;34.22;;;10.45;;
33760;SDS011;20084;47.912;19.044;2022-11-14T03:10:54;24.45;;;9.52;;
33760;SDS011;20084;47.912;19.044;2022-11-14T03:13:20;23.95;;;9.48;;
33760;SDS011;20084;47.912;19.044;2022-11-14T03:15:46;16.27;;;10.07;;
33760;SDS011;20084;47.912;19.044;2022-11-14T03:18:12;26.63;;;11.02;;
33760;SDS011;20084;47.912;19.044;2022-11-14T03:20:38;23.13;;;10.75;;
33760;SDS011;20084;47.912;19.044;2022-11-14T03:23:04;40.05;;;11.55;;
33760;SDS011;20084;47.912;19.044;2022-11-14T03:25:30;42.13;;;11.27;;
33760;SDS011;20084;47.912;19.044;2022-11-14T03:27:56;53.05;;;10.75;;
33760;SDS011;20084;47.912;19.044;2022-11-14T03:30:21;39.15;;;10.63;;
33760;SDS011;20084;47.912;19.044;2022-11-14T03:32:47;52.70;;;10.13;;
33760;SDS011;20084;47.912;19.044;2022-11-14T03:35:12;41.00;;;10.65;;
33760;SDS011;20084;47.912;19.044;2022-11-14T03:37:38;41.60;;;10.48;;
33760;SDS011;20084;47.912;19.044;2022-11-14T03:40:04;49.83;;;9.88;;
33760;SDS011;20084;47.912;19.044;2022-11-14T03:42:33;33.13;;;9.68;;
33760;SDS011;20084;47.912;19.044;2022-11-14T03:44:59;41.38;;;10.68;;
33760;SDS011;20084;47.912;19.044;2022-11-14T03:47:25;46.92;;;10.00;;
33760;SDS011;20084;47.912;19.044;2022-11-14T03:49:50;62.35;;;10.10;;
33760;SDS011;20084;47.912;19.044;2022-11-14T03:52:16;30.48;;;9.98;;
33760;SDS011;20084;47.912;19.044;2022-11-14T03:54:42;32.83;;;10.07;;
33760;SDS011;20084;47.912;19.044;2022-11-14T03:57:07;42.88;;;10.10;;
33760;SDS011;20084;47.912;19.044;2022-11-14T03:59:33;41.03;;;9.63;;
33760;SDS011;20084;47.912;19.044;2022-11-14T04:01:58;28.65;;;9.18;;
33760;SDS011;20084;47.912;19.044;2022-11-14T04:04:24;43.40;;;9.35;;
33760;SDS011;20084;47.912;19.044;2022-11-14T04:06:49;42.97;;;10.10;;
33760;SDS011;20084;47.912;19.044;2022-11-14T04:09:15;18.20;;;8.75;;
33760;SDS011;20084;47.912;19.044;2022-11-14T04:11:40;21.58;;;8.93;;
33760;SDS011;20084;47.912;19.044;2022-11-14T04:14:06;16.42;;;9.05;;
33760;SDS011;20084;47.912;19.044;2022-11-14T04:16:31;15.30;;;8.85;;
33760;SDS011;20084;47.912;19.044;2022-11-14T04:18:57;30.52;;;8.85;;
33760;SDS011;20084;47.912;19.044;2022-11-14T04:21:23;37.92;;;9.02;;
33760;SDS011;20084;47.912;19.044;2022-11-14T04:23:48;21.38;;;8.52;;
33760;SDS011;20084;47.912;19.044;2022-11-14T04:26:14;81.18;;;9.52;;
33760;SDS011;20084;47.912;19.044;2022-11-14T04:28:39;31.80;;;9.07;;
33760;SDS011;20084;47.912;19.044;2022-11-14T04:31:05;42.38;;;10.00;;
33760;SDS011;20084;47.912;19.044;2022-11-14T04:33:30;30.00;;;9.18;;
33760;SDS011;20084;47.912;19.044;2022-11-14T04:35:56;78.55;;;9.15;;
33760;SDS011;20084;47.912;19.044;2022-11-14T04:38:22;41.97;;;8.88;;
33760;SDS011;20084;47.912;19.044;2022-11-14T04:40:48;68.80;;;9.40;;
33760;SDS011;20084;47.912;19.044;2022-11-14T04:43:15;39.03;;;8.20;;
33760;SDS011;20084;47.912;19.044;2022-11-14T04:45:42;72.90;;;9.40;;
33760;SDS011;20084;47.912;19.044;2022-11-14T04:48:10;35.50;;;7.85;;
33760;SDS011;20084;47.912;19.044;2022-11-14T04:50:36;90.85;;;9.73;;
33760;SDS011;20084;47.912;19.044;2022-11-14T04:53:02;69.78;;;9.45;;
33760;SDS011;20084;47.912;19.044;2022-11-14T04:55:29;102.70;;;8.15;;
33760;SDS011;20084;47.912;19.044;2022-11-14T04:57:55;97.07;;;8.55;;
33760;SDS011;20084;47.912;19.044;2022-11-14T05:00:22;92.20;;;8.15;;
33760;SDS011;20084;47.912;19.044;2022-11-14T05:02:48;85.30;;;8.27;;
33760;SDS011;20084;47.912;19.044;2022-11-14T05:05:14;36.58;;;7.03;;
33760;SDS011;20084;47.912;19.044;2022-11-14T05:07:40;31.63;;;7.38;;
33760;SDS011;20084;47.912;19.044;2022-11-14T05:10:06;61.03;;;7.72;;
33760;SDS011;20084;47.912;19.044;2022-11-14T05:12:32;25.33;;;7.25;;
33760;SDS011;20084;47.912;19.044;2022-11-14T05:14:58;66.03;;;8.32;;
33760;SDS011;20084;47.912;19.044;2022-11-14T05:17:23;49.42;;;7.72;;
33760;SDS011;20084;47.912;19.044;2022-11-14T05:19:49;17.77;;;7.35;;
33760;SDS011;20084;47.912;19.044;2022-11-14T05:22:15;22.20;;;7.03;;
33760;SDS011;20084;47.912;19.044;2022-11-14T05:24:40;32.55;;;7.10;;
33760;SDS011;20084;47.912;19.044;2022-11-14T05:27:06;57.70;;;7.57;;
33760;SDS011;20084;47.912;19.044;2022-11-14T05:29:32;41.95;;;7.63;;
33760;SDS011;20084;47.912;19.044;2022-11-14T05:31:57;26.55;;;7.07;;
33760;SDS011;20084;47.912;19.044;2022-11-14T05:34:24;32.95;;;7.93;;
33760;SDS011;20084;47.912;19.044;2022-11-14T05:36:50;41.92;;;7.53;;
33760;SDS011;20084;47.912;19.044;2022-11-14T05:39:15;66.85;;;8.43;;
33760;SDS011;20084;47.912;19.044;2022-11-14T05:41:41;84.65;;;8.10;;
33760;SDS011;20084;47.912;19.044;2022-11-14T05:44:07;33.55;;;7.22;;
33760;SDS011;20084;47.912;19.044;2022-11-14T05:46:33;30.65;;;6.88;;
33760;SDS011;20084;47.912;19.044;2022-11-14T05:48:58;65.40;;;7.80;;
33760;SDS011;20084;47.912;19.044;2022-11-14T05:51:24;68.80;;;8.05;;
33760;SDS011;20084;47.912;19.044;2022-11-14T05:53:50;51.80;;;7.40;;
33760;SDS011;20084;47.912;19.044;2022-11-14T05:56:15;18.75;;;5.95;;
33760;SDS011;20084;47.912;19.044;2022-11-14T05:58:41;16.70;;;6.15;;
33760;SDS011;20084;47.912;19.044;2022-11-14T06:01:10;18.50;;;6.30;;
33760;SDS011;20084;47.912;19.044;2022-11-14T06:03:38;31.90;;;6.40;;
33760;SDS011;20084;47.912;19.044;2022-11-14T06:06:06;22.20;;;5.70;;
33760;SDS011;20084;47.912;19.044;2022-11-14T06:08:33;31.10;;;6.03;;
33760;SDS011;20084;47.912;19.044;2022-11-14T06:11:04;20.85;;;5.18;;
33760;SDS011;20084;47.912;19.044;2022-11-14T06:13:37;21.45;;;6.07;;
33760;SDS011;20084;47.912;19.044;2022-11-14T06:16:04;24.65;;;5.43;;
33760;SDS011;20084;47.912;19.044;2022-11-14T06:18:31;18.10;;;5.75;;
33760;SDS011;20084;47.912;19.044;2022-11-14T06:21:02;23.25;;;5.53;;
33760;SDS011;20084;47.912;19.044;2022-11-14T06:23:29;31.88;;;5.82;;
33760;SDS011;20084;47.912;19.044;2022-11-14T06:26:02;37.65;;;5.55;;
33760;SDS011;20084;47.912;19.044;2022-11-14T06:28:30;33.08;;;6.10;;
33760;SDS011;20084;47.912;19.044;2022-11-14T06:30:59;44.00;;;6.32;;
33760;SDS011;20084;47.912;19.044;2022-11-14T06:33:26;28.30;;;5.82;;
33760;SDS011;20084;47.912;19.044;2022-11-14T06:35:59;53.67;;;6.20;;
33760;SDS011;20084;47.912;19.044;2022-11-14T06:38:26;36.65;;;6.45;;
33760;SDS011;20084;47.912;19.044;2022-11-14T06:41:00;28.05;;;7.00;;
33760;SDS011;20084;47.912;19.044;2022-11-14T06:43:27;45.72;;;6.50;;
33760;SDS011;20084;47.912;19.044;2022-11-14T06:45:53;51.45;;;6.47;;
33760;SDS011;20084;47.912;19.044;2022-11-14T06:48:19;58.38;;;6.57;;
33760;SDS011;20084;47.912;19.044;2022-11-14T06:50:54;44.15;;;6.68;;
33760;SDS011;20084;47.912;19.044;2022-11-14T06:53:21;49.28;;;6.28;;
33760;SDS011;20084;47.912;19.044;2022-11-14T06:55:57;43.70;;;6.70;;
33760;SDS011;20084;47.912;19.044;2022-11-14T06:58:28;21.83;;;6.63;;
33760;SDS011;20084;47.912;19.044;2022-11-14T07:01:22;52.55;;;7.07;;
33760;SDS011;20084;47.912;19.044;2022-11-14T07:03:50;32.55;;;6.35;;
33760;SDS011;20084;47.912;19.044;2022-11-14T07:06:23;26.02;;;6.80;;
33760;SDS011;20084;47.912;19.044;2022-11-14T07:08:50;61.20;;;7.40;;
33760;SDS011;20084;47.912;19.044;2022-11-14T07:11:17;58.53;;;7.38;;
33760;SDS011;20084;47.912;19.044;2022-11-14T07:16:19;13.40;;;6.95;;
33760;SDS011;20084;47.912;19.044;2022-11-14T07:18:47;19.25;;;7.18;;
33760;SDS011;20084;47.912;19.044;2022-11-14T07:21:13;29.30;;;7.90;;
33760;SDS011;20084;47.912;19.044;2022-11-14T07:23:39;23.63;;;7.68;;
33760;SDS011;20084;47.912;19.044;2022-11-14T07:26:06;60.35;;;8.10;;
33760;SDS011;20084;47.912;19.044;2022-11-14T07:28:34;48.17;;;8.00;;
33760;SDS011;20084;47.912;19.044;2022-11-14T07:31:01;18.50;;;8.15;;
33760;SDS011;20084;47.912;19.044;2022-11-14T07:33:28;29.13;;;8.23;;
33760;SDS011;20084;47.912;19.044;2022-11-14T07:35:54;52.97;;;9.32;;
33760;SDS011;20084;47.912;19.044;2022-11-14T07:38:20;37.35;;;8.95;;
33760;SDS011;20084;47.912;19.044;2022-11-14T07:40:55;50.10;;;9.10;;
33760;SDS011;20084;47.912;19.044;2022-11-14T07:43:25;31.05;;;9.65;;
33760;SDS011;20084;47.912;19.044;2022-11-14T07:45:51;24.42;;;9.25;;
33760;SDS011;20084;47.912;19.044;2022-11-14T07:48:17;22.10;;;9.95;;
33760;SDS011;20084;47.912;19.044;2022-11-14T07:50:42;62.22;;;10.15;;
33760;SDS011;20084;47.912;19.044;2022-11-14T07:53:08;110.72;;;11.35;;
33760;SDS011;20084;47.912;19.044;2022-11-14T07:55:35;68.10;;;10.48;;
33760;SDS011;20084;47.912;19.044;2022-11-14T07:58:00;80.30;;;11.13;;
33760;SDS011;20084;47.912;19.044;2022-11-14T08:00:26;58.63;;;11.45;;
33760;SDS011;20084;47.912;19.044;2022-11-14T08:02:52;37.88;;;11.38;;
33760;SDS011;20084;47.912;19.044;2022-11-14T08:05:17;37.72;;;11.82;;
33760;SDS011;20084;47.912;19.044;2022-11-14T08:07:43;21.33;;;11.15;;
33760;SDS011;20084;47.912;19.044;2022-11-14T08:10:09;20.33;;;11.15;;
33760;SDS011;20084;47.912;19.044;2022-11-14T08:12:37;43.53;;;10.95;;
33760;SDS011;20084;47.912;19.044;2022-11-14T08:15:04;77.63;;;11.18;;
33760;SDS011;20084;47.912;19.044;2022-11-14T08:17:31;48.38;;;11.18;;
33760;SDS011;20084;47.912;19.044;2022-11-14T08:19:56;20.13;;;7.72;;
33760;SDS011;20084;47.912;19.044;2022-11-14T08:22:22;42.70;;;9.43;;
33760;SDS011;20084;47.912;19.044;2022-11-14T08:24:48;76.68;;;8.43;;
33760;SDS011;20084;47.912;19.044;2022-11-14T08:27:13;62.00;;;8.27;;
33760;SDS011;20084;47.912;19.044;2022-11-14T08:29:39;32.85;;;7.05;;
33760;SDS011;20084;47.912;19.044;2022-11-14T08:32:04;13.68;;;7.28;;
33760;SDS011;20084;47.912;19.044;2022-11-14T08:34:30;35.92;;;7.10;;
33760;SDS011;20084;47.912;19.044;2022-11-14T08:36:56;30.00;;;6.85;;
33760;SDS011;20084;47.912;19.044;2022-11-14T08:39:22;17.98;;;7.07;;
33760;SDS011;20084;47.912;19.044;2022-11-14T08:41:48;13.98;;;7.20;;
33760;SDS011;20084;47.912;19.044;2022-11-14T08:44:13;35.47;;;6.80;;
33760;SDS011;20084;47.912;19.044;2022-11-14T08:46:39;19.23;;;6.80;;
33760;SDS011;20084;47.912;19.044;2022-11-14T08:49:04;14.50;;;7.43;;
33760;SDS011;20084;47.912;19.044;2022-11-14T08:51:30;37.15;;;6.60;;
33760;SDS011;20084;47.912;19.044;2022-11-14T08:53:56;26.70;;;6.97;;
33760;SDS011;20084;47.912;19.044;2022-11-14T08:56:21;11.63;;;6.60;;
33760;SDS011;20084;47.912;19.044;2022-11-14T08:58:47;39.92;;;6.90;;
33760;SDS011;20084;47.912;19.044;2022-11-14T09:01:12;9.88;;;7.78;;
33760;SDS011;20084;47.912;19.044;2022-11-14T09:03:38;33.13;;;7.45;;
33760;SDS011;20084;47.912;19.044;2022-11-14T09:06:04;13.18;;;6.40;;
33760;SDS011;20084;47.912;19.044;2022-11-14T09:08:29;8.52;;;7.13;;
33760;SDS011;20084;47.912;19.044;2022-11-14T09:10:58;12.13;;;6.50;;
33760;SDS011;20084;47.912;19.044;2022-11-14T09:13:24;87.30;;;7.28;;
33760;SDS011;20084;47.912;19.044;2022-11-14T09:15:51;10.00;;;7.00;;
33760;SDS011;20084;47.912;19.044;2022-11-14T09:18:17;11.50;;;5.97;;
33760;SDS011;20084;47.912;19.044;2022-11-14T09:20:43;8.65;;;6.47;;
33760;SDS011;20084;47.912;19.044;2022-11-14T09:23:08;50.88;;;6.35;;
33760;SDS011;20084;47.912;19.044;2022-11-14T09:25:34;21.80;;;6.32;;
33760;SDS011;20084;47.912;19.044;2022-11-14T09:28:04;44.30;;;6.65;;
33760;SDS011;20084;47.912;19.044;2022-11-14T09:30:31;12.18;;;7.68;;
33760;SDS011;20084;47.912;19.044;2022-11-14T09:32:58;10.35;;;7.88;;
33760;SDS011;20084;47.912;19.044;2022-11-14T09:35:25;10.45;;;7.20;;
33760;SDS011;20084;47.912;19.044;2022-11-14T09:38:01;23.90;;;7.65;;
33760;SDS011;20084;47.912;19.044;2022-11-14T09:40:44;34.38;;;8.30;;
33760;SDS011;20084;47.912;19.044;2022-11-14T09:45:47;13.20;;;8.13;;
33760;SDS011;20084;47.912;19.044;2022-11-14T09:48:17;10.93;;;8.52;;
33760;SDS011;20084;47.912;19.044;2022-11-14T09:50:57;22.17;;;8.07;;
33760;SDS011;20084;47.912;19.044;2022-11-14T09:53:36;17.65;;;8.88;;
33760;SDS011;20084;47.912;19.044;2022-11-14T09:56:12;23.63;;;8.65;;
33760;SDS011;20084;47.912;19.044;2022-11-14T09:58:43;11.48;;;8.77;;
33760;SDS011;20084;47.912;19.044;2022-11-14T10:03:46;14.57;;;10.18;;
33760;SDS011;20084;47.912;19.044;2022-11-14T10:09:02;12.98;;;10.00;;
33760;SDS011;20084;47.912;19.044;2022-11-14T10:11:32;14.13;;;10.85;;
33760;SDS011;20084;47.912;19.044;2022-11-14T10:22:40;16.85;;;11.38;;
33760;SDS011;20084;47.912;19.044;2022-11-14T10:27:48;23.17;;;10.23;;
33760;SDS011;20084;47.912;19.044;2022-11-14T10:33:41;14.43;;;10.73;;
33760;SDS011;20084;47.912;19.044;2022-11-14T10:36:14;14.20;;;11.20;;
33760;SDS011;20084;47.912;19.044;2022-11-14T10:41:35;13.60;;;10.77;;
33760;SDS011;20084;47.912;19.044;2022-11-14T10:44:02;13.10;;;11.60;;
33760;SDS011;20084;47.912;19.044;2022-11-14T10:48:57;15.80;;;12.25;;
33760;SDS011;20084;47.912;19.044;2022-11-14T10:54:03;15.95;;;12.35;;
33760;SDS011;20084;47.912;19.044;2022-11-14T10:56:30;18.52;;;12.48;;
33760;SDS011;20084;47.912;19.044;2022-11-14T10:58:56;14.18;;;11.90;;
33760;SDS011;20084;47.912;19.044;2022-11-14T11:01:32;15.35;;;12.55;;
33760;SDS011;20084;47.912;19.044;2022-11-14T11:04:05;14.60;;;12.30;;
33760;SDS011;20084;47.912;19.044;2022-11-14T11:06:57;17.35;;;12.93;;
33760;SDS011;20084;47.912;19.044;2022-11-14T11:10:02;13.82;;;11.98;;
33760;SDS011;20084;47.912;19.044;2022-11-14T11:12:47;17.05;;;13.73;;
33760;SDS011;20084;47.912;19.044;2022-11-14T11:15:24;19.95;;;14.23;;
33760;SDS011;20084;47.912;19.044;2022-11-14T11:18:00;16.75;;;13.63;;
33760;SDS011;20084;47.912;19.044;2022-11-14T11:23:05;16.17;;;13.43;;
33760;SDS011;20084;47.912;19.044;2022-11-14T11:25:34;17.63;;;12.93;;
33760;SDS011;20084;47.912;19.044;2022-11-14T11:28:05;17.63;;;14.52;;
33760;SDS011;20084;47.912;19.044;2022-11-14T11:30:39;16.02;;;13.68;;
33760;SDS011;20084;47.912;19.044;2022-11-14T11:35:48;15.55;;;12.85;;
33760;SDS011;20084;47.912;19.044;2022-11-14T11:38:17;17.00;;;13.35;;
33760;SDS011;20084;47.912;19.044;2022-11-14T11:40:44;17.30;;;13.30;;
33760;SDS011;20084;47.912;19.044;2022-11-14T11:43:15;20.33;;;14.75;;
33760;SDS011;20084;47.912;19.044;2022-11-14T11:45:49;18.33;;;13.65;;
33760;SDS011;20084;47.912;19.044;2022-11-14T11:48:18;18.98;;;14.82;;
33760;SDS011;20084;47.912;19.044;2022-11-14T11:50:44;18.50;;;14.00;;
33760;SDS011;20084;47.912;19.044;2022-11-14T11:55:54;15.65;;;12.90;;
33760;SDS011;20084;47.912;19.044;2022-11-14T12:01:15;17.27;;;14.23;;
33760;SDS011;20084;47.912;19.044;2022-11-14T12:03:49;17.80;;;14.23;;
33760;SDS011;20084;47.912;19.044;2022-11-14T12:06:17;17.33;;;13.63;;
33760;SDS011;20084;47.912;19.044;2022-11-14T12:09:03;17.40;;;14.45;;
33760;SDS011;20084;47.912;19.044;2022-11-14T12:11:38;19.67;;;14.32;;
33760;SDS011;20084;47.912;19.044;2022-11-14T12:14:12;18.73;;;14.45;;
33760;SDS011;20084;47.912;19.044;2022-11-14T12:17:44;16.95;;;14.35;;
33760;SDS011;20084;47.912;19.044;2022-11-14T12:20:32;17.13;;;13.88;;
33760;SDS011;20084;47.912;19.044;2022-11-14T12:23:35;18.10;;;13.65;;
33760;SDS011;20084;47.912;19.044;2022-11-14T12:32:11;17.98;;;13.68;;
33760;SDS011;20084;47.912;19.044;2022-11-14T12:34:42;18.87;;;14.87;;
33760;SDS011;20084;47.912;19.044;2022-11-14T12:37:13;21.30;;;13.73;;
33760;SDS011;20084;47.912;19.044;2022-11-14T12:40:04;17.35;;;14.07;;
33760;SDS011;20084;47.912;19.044;2022-11-14T12:42:32;17.33;;;14.20;;
33760;SDS011;20084;47.912;19.044;2022-11-14T12:44:59;17.85;;;14.07;;
33760;SDS011;20084;47.912;19.044;2022-11-14T12:47:25;18.20;;;14.15;;
33760;SDS011;20084;47.912;19.044;2022-11-14T13:00:26;17.50;;;14.48;;
33760;SDS011;20084;47.912;19.044;2022-11-14T13:03:03;18.05;;;14.25;;
33760;SDS011;20084;47.912;19.044;2022-11-14T13:05:58;20.17;;;14.35;;
33760;SDS011;20084;47.912;19.044;2022-11-14T13:14:24;14.52;;;12.80;;
33760;SDS011;20084;47.912;19.044;2022-11-14T13:28:45;14.90;;;12.60;;
33760;SDS011;20084;47.912;19.044;2022-11-14T13:33:48;16.30;;;12.95;;
33760;SDS011;20084;47.912;19.044;2022-11-14T13:36:38;16.63;;;12.98;;
33760;SDS011;20084;47.912;19.044;2022-11-14T13:39:41;14.02;;;12.15;;
33760;SDS011;20084;47.912;19.044;2022-11-14T13:42:29;14.57;;;13.18;;
33760;SDS011;20084;47.912;19.044;2022-11-14T13:45:33;15.07;;;11.52;;
33760;SDS011;20084;47.912;19.044;2022-11-14T13:48:14;13.75;;;12.23;;
33760;SDS011;20084;47.912;19.044;2022-11-14T13:50:43;12.60;;;11.27;;
33760;SDS011;20084;47.912;19.044;2022-11-14T13:53:21;15.95;;;12.57;;
33760;SDS011;20084;47.912;19.044;2022-11-14T14:09:31;14.55;;;13.02;;
33760;SDS011;20084;47.912;19.044;2022-11-14T14:15:08;17.83;;;13.40;;
33760;SDS011;20084;47.912;19.044;2022-11-14T14:31:23;14.77;;;12.68;;
33760;SDS011;20084;47.912;19.044;2022-11-14T14:33:50;18.23;;;12.60;;
33760;SDS011;20084;47.912;19.044;2022-11-14T14:38:43;18.17;;;12.93;;
33760;SDS011;20084;47.912;19.044;2022-11-14T14:41:10;15.63;;;11.30;;
33760;SDS011;20084;47.912;19.044;2022-11-14T14:43:41;25.35;;;13.15;;
33760;SDS011;20084;47.912;19.044;2022-11-14T14:46:13;16.80;;;12.05;;
33760;SDS011;20084;47.912;19.044;2022-11-14T14:48:39;15.10;;;12.45;;
33760;SDS011;20084;47.912;19.044;2022-11-14T14:51:11;13.88;;;11.65;;
33760;SDS011;20084;47.912;19.044;2022-11-14T14:53:38;15.23;;;12.05;;
33760;SDS011;20084;47.912;19.044;2022-11-14T14:56:05;17.58;;;13.18;;
33760;SDS011;20084;47.912;19.044;2022-11-14T14:58:41;15.30;;;11.05;;
33760;SDS011;20084;47.912;19.044;2022-11-14T15:01:16;14.02;;;11.35;;
33760;SDS011;20084;47.912;19.044;2022-11-14T15:03:48;13.73;;;11.75;;
33760;SDS011;20084;47.912;19.044;2022-11-14T15:06:30;12.93;;;11.00;;
33760;SDS011;20084;47.912;19.044;2022-11-14T15:09:02;11.30;;;9.90;;
33760;SDS011;20084;47.912;19.044;2022-11-14T15:11:32;15.82;;;10.82;;
33760;SDS011;20084;47.912;19.044;2022-11-14T15:13:58;13.63;;;10.07;;
33760;SDS011;20084;47.912;19.044;2022-11-14T15:16:25;12.35;;;10.02;;
33760;SDS011;20084;47.912;19.044;2022-11-14T15:18:53;15.38;;;10.02;;
33760;SDS011;20084;47.912;19.044;2022-11-14T15:23:56;17.55;;;10.55;;
33760;SDS011;20084;47.912;19.044;2022-11-14T15:26:28;15.45;;;11.77;;
33760;SDS011;20084;47.912;19.044;2022-11-14T15:29:05;14.45;;;12.15;;
33760;SDS011;20084;47.912;19.044;2022-11-14T15:31:38;24.75;;;15.43;;
33760;SDS011;20084;47.912;19.044;2022-11-14T15:34:24;14.75;;;11.45;;
33760;SDS011;20084;47.912;19.044;2022-11-14T15:39:31;13.80;;;9.77;;
33760;SDS011;20084;47.912;19.044;2022-11-14T15:44:53;10.82;;;9.43;;
33760;SDS011;20084;47.912;19.044;2022-11-14T15:47:38;12.02;;;9.70;;
33760;SDS011;20084;47.912;19.044;2022-11-14T15:52:40;11.95;;;9.85;;
33760;SDS011;20084;47.912;19.044;2022-11-14T15:55:17;16.30;;;10.93;;
33760;SDS011;20084;47.912;19.044;2022-11-14T15:57:44;13.20;;;9.95;;
33760;SDS011;20084;47.912;19.044;2022-11-14T16:00:13;11.00;;;9.23;;
33760;SDS011;20084;47.912;19.044;2022-11-14T16:02:50;13.43;;;10.15;;
33760;SDS011;20084;47.912;19.044;2022-11-14T16:05:19;17.00;;;12.02;;
33760;SDS011;20084;47.912;19.044;2022-11-14T16:07:49;21.17;;;12.88;;
33760;SDS011;20084;47.912;19.044;2022-11-14T16:10:15;10.10;;;6.63;;
33760;SDS011;20084;47.912;19.044;2022-11-14T16:12:45;6.40;;;5.40;;
33760;SDS011;20084;47.912;19.044;2022-11-14T16:15:11;7.40;;;4.97;;
33760;SDS011;20084;47.912;19.044;2022-11-14T16:17:38;8.23;;;6.75;;
33760;SDS011;20084;47.912;19.044;2022-11-14T16:20:06;10.38;;;7.00;;
33760;SDS011;20084;47.912;19.044;2022-11-14T16:22:40;9.15;;;7.18;;
33760;SDS011;20084;47.912;19.044;2022-11-14T16:25:08;12.48;;;9.32;;
33760;SDS011;20084;47.912;19.044;2022-11-14T16:27:40;25.92;;;16.25;;
33760;SDS011;20084;47.912;19.044;2022-11-14T16:30:07;12.10;;;9.15;;